createdAt,value
2017-10-13T00:00:36.410Z,11.30
2017-10-13T00:03:04.717Z,11.30
2017-10-13T00:05:33.013Z,11.30
2017-10-13T00:08:02.109Z,11.40
2017-10-13T00:10:30.416Z,11.30
2017-10-13T00:12:59.485Z,11.30
2017-10-13T00:15:27.790Z,11.30
2017-10-13T00:17:56.073Z,11.30
2017-10-13T00:20:24.407Z,11.30
2017-10-13T00:22:52.707Z,11.30
2017-10-13T00:25:20.985Z,11.30
2017-10-13T00:27:50.046Z,11.30
2017-10-13T00:30:18.423Z,11.30
2017-10-13T00:32:46.735Z,11.40
2017-10-13T00:35:15.019Z,11.40
2017-10-13T00:37:44.057Z,11.40
2017-10-13T00:40:12.373Z,11.40
2017-10-13T00:42:40.764Z,11.40
2017-10-13T00:45:09.072Z,11.40
2017-10-13T00:47:37.408Z,11.40
2017-10-13T00:50:06.454Z,11.50
2017-10-13T00:52:34.789Z,11.40
2017-10-13T00:55:03.073Z,11.40
2017-10-13T00:57:32.166Z,11.50
2017-10-13T01:00:00.448Z,11.50
2017-10-13T01:02:29.538Z,11.50
2017-10-13T01:04:57.841Z,11.50
2017-10-13T01:07:26.116Z,11.50
2017-10-13T01:09:54.453Z,11.50
2017-10-13T01:12:22.737Z,11.50
2017-10-13T01:14:51.033Z,11.50
2017-10-13T01:17:19.369Z,11.50
2017-10-13T01:19:47.677Z,11.50
2017-10-13T01:22:15.993Z,11.50
2017-10-13T01:24:44.277Z,11.60
2017-10-13T01:27:12.568Z,11.50
2017-10-13T01:29:40.897Z,11.50
2017-10-13T01:32:09.960Z,11.60
2017-10-13T01:34:38.283Z,11.60
2017-10-13T01:37:06.581Z,11.60
2017-10-13T01:39:34.864Z,11.60
2017-10-13T01:42:03.166Z,11.70
2017-10-13T01:44:31.465Z,11.70
2017-10-13T01:47:00.574Z,11.70
2017-10-13T01:49:28.856Z,11.70
2017-10-13T01:51:57.133Z,11.60
2017-10-13T01:54:25.437Z,11.60
2017-10-13T01:56:53.714Z,11.60
2017-10-13T01:59:22.044Z,11.50
2017-10-13T02:01:51.101Z,11.60
2017-10-13T02:04:19.395Z,11.60
2017-10-13T02:06:47.701Z,11.60
2017-10-13T02:09:16.001Z,11.50
2017-10-13T02:11:44.324Z,11.60
2017-10-13T02:14:12.612Z,11.50
2017-10-13T02:16:40.893Z,11.60
2017-10-13T02:19:09.960Z,11.60
2017-10-13T02:21:38.259Z,11.60
2017-10-13T02:24:06.632Z,11.50
2017-10-13T02:26:35.022Z,11.50
2017-10-13T02:29:03.297Z,11.50
2017-10-13T02:31:31.609Z,11.50
2017-10-13T02:33:59.881Z,11.50
2017-10-13T02:36:28.189Z,11.60
2017-10-13T02:38:56.489Z,11.50
2017-10-13T02:41:24.779Z,11.50
2017-10-13T02:43:53.154Z,11.50
2017-10-13T02:46:22.945Z,11.50
2017-10-13T02:48:51.282Z,11.50
2017-10-13T02:51:19.567Z,11.50
2017-10-13T02:53:47.917Z,11.60
2017-10-13T02:56:16.993Z,11.50
2017-10-13T02:58:45.274Z,11.50
2017-10-13T03:01:15.114Z,11.60
2017-10-13T03:03:44.156Z,11.60
2017-10-13T03:06:12.453Z,11.50
2017-10-13T03:08:40.756Z,11.50
2017-10-13T03:11:09.810Z,11.50
2017-10-13T03:13:38.204Z,11.50
2017-10-13T03:16:07.253Z,11.50
2017-10-13T03:18:35.601Z,11.40
2017-10-13T03:21:03.904Z,11.50
2017-10-13T03:23:32.189Z,11.50
2017-10-13T03:26:00.505Z,11.40
2017-10-13T03:28:28.801Z,11.50
2017-10-13T03:30:57.187Z,11.40
2017-10-13T03:33:25.557Z,11.40
2017-10-13T03:35:53.846Z,11.30
2017-10-13T03:38:23.037Z,11.20
2017-10-13T03:40:51.317Z,11.20
2017-10-13T03:43:20.453Z,11.20
2017-10-13T03:45:48.794Z,11.20
2017-10-13T03:48:17.836Z,11.20
2017-10-13T03:50:46.146Z,11.20
2017-10-13T03:53:14.547Z,11.10
2017-10-13T03:55:42.833Z,11.10
2017-10-13T03:58:11.902Z,11.10
2017-10-13T04:00:40.184Z,11.10
2017-10-13T04:03:08.503Z,11.10
2017-10-13T04:05:36.794Z,11.10
2017-10-13T04:08:05.073Z,11.20
2017-10-13T04:10:33.384Z,11.20
2017-10-13T04:13:01.678Z,11.10
2017-10-13T04:15:30.066Z,11.10
2017-10-13T04:17:59.130Z,11.10
2017-10-13T04:20:27.425Z,11.10
2017-10-13T04:22:55.729Z,11.00
2017-10-13T04:25:24.003Z,11.00
2017-10-13T04:27:52.427Z,11.00
2017-10-13T04:30:21.516Z,11.00
2017-10-13T04:32:49.890Z,11.00
2017-10-13T04:35:18.984Z,11.00
2017-10-13T04:37:47.358Z,11.00
2017-10-13T04:40:15.722Z,11.00
2017-10-13T04:42:44.002Z,11.00
2017-10-13T04:45:12.290Z,11.00
2017-10-13T04:47:41.393Z,10.90
2017-10-13T04:50:10.473Z,10.90
2017-10-13T04:52:39.672Z,10.90
2017-10-13T04:55:08.767Z,10.90
2017-10-13T04:57:37.045Z,10.90
2017-10-13T05:00:06.124Z,10.80
2017-10-13T05:02:35.914Z,10.80
2017-10-13T05:05:04.245Z,10.80
2017-10-13T05:07:33.287Z,10.80
2017-10-13T05:10:01.697Z,10.80
2017-10-13T05:12:30.754Z,10.80
2017-10-13T05:14:59.020Z,10.70
2017-10-13T05:17:27.335Z,10.80
2017-10-13T05:19:55.591Z,10.80
2017-10-13T05:22:23.897Z,10.80
2017-10-13T05:24:52.164Z,10.80
2017-10-13T05:27:21.951Z,10.70
2017-10-13T05:29:50.245Z,10.70
2017-10-13T05:32:18.506Z,10.70
2017-10-13T05:34:46.775Z,10.70
2017-10-13T05:37:15.058Z,10.70
2017-10-13T05:39:43.305Z,10.70
2017-10-13T05:42:12.364Z,10.70
2017-10-13T05:44:42.125Z,10.70
2017-10-13T05:47:10.389Z,10.70
2017-10-13T05:49:38.695Z,10.70
2017-10-13T05:52:06.958Z,10.70
2017-10-13T05:54:35.263Z,10.70
2017-10-13T05:57:03.520Z,10.70
2017-10-13T05:59:31.800Z,10.70
2017-10-13T06:02:00.195Z,10.70
2017-10-13T06:04:28.466Z,10.70
2017-10-13T06:06:56.757Z,10.60
2017-10-13T06:09:25.032Z,10.70
2017-10-13T06:11:53.298Z,10.70
2017-10-13T06:14:21.704Z,10.70
2017-10-13T06:16:50.724Z,10.80
2017-10-13T06:19:19.880Z,10.70
2017-10-13T06:21:48.153Z,10.70
2017-10-13T06:24:16.410Z,10.80
2017-10-13T06:26:44.831Z,10.80
2017-10-13T06:29:13.103Z,10.80
2017-10-13T06:31:41.394Z,10.80
2017-10-13T06:34:09.650Z,10.90
2017-10-13T06:36:37.916Z,10.90
2017-10-13T06:39:06.245Z,10.90
2017-10-13T06:41:34.514Z,11.00
2017-10-13T06:44:02.898Z,11.10
2017-10-13T06:46:31.169Z,11.10
2017-10-13T06:48:59.427Z,11.10
2017-10-13T06:51:27.718Z,11.10
2017-10-13T06:53:55.990Z,11.10
2017-10-13T06:56:24.309Z,11.20
2017-10-13T06:58:52.664Z,11.20
2017-10-13T07:01:20.952Z,11.20
2017-10-13T07:03:49.221Z,11.30
2017-10-13T07:06:17.480Z,11.30
2017-10-13T07:08:45.777Z,11.40
2017-10-13T07:11:14.037Z,11.30
2017-10-13T07:13:42.324Z,11.40
2017-10-13T07:16:10.805Z,11.50
2017-10-13T07:18:39.051Z,11.40
2017-10-13T07:21:07.456Z,11.50
2017-10-13T07:23:35.715Z,11.60
2017-10-13T07:26:03.984Z,11.60
2017-10-13T07:28:32.273Z,11.70
2017-10-13T07:31:00.555Z,11.80
2017-10-13T07:33:28.952Z,11.80
2017-10-13T07:35:57.225Z,11.90
2017-10-13T07:38:25.479Z,12.10
2017-10-13T07:40:53.782Z,12.20
2017-10-13T07:43:22.160Z,12.30
2017-10-13T07:45:50.461Z,12.40
2017-10-13T07:48:18.819Z,12.60
2017-10-13T07:50:47.098Z,12.60
2017-10-13T07:53:15.470Z,12.70
2017-10-13T07:55:43.768Z,12.80
2017-10-13T07:58:12.137Z,12.80
2017-10-13T08:00:40.403Z,12.80
2017-10-13T08:03:08.693Z,13.00
2017-10-13T08:05:36.976Z,13.10
2017-10-13T08:08:05.252Z,13.20
2017-10-13T08:10:33.620Z,13.30
2017-10-13T08:13:01.897Z,13.30
2017-10-13T08:15:30.163Z,13.50
2017-10-13T08:17:58.446Z,13.50
2017-10-13T08:20:26.700Z,13.50
2017-10-13T08:22:55.017Z,13.60
2017-10-13T08:25:23.378Z,13.60
2017-10-13T08:27:51.633Z,13.80
2017-10-13T08:30:20.010Z,13.80
2017-10-13T08:32:48.272Z,13.80
2017-10-13T08:35:16.573Z,13.90
2017-10-13T08:37:44.842Z,13.80
2017-10-13T08:40:13.221Z,13.90
2017-10-13T08:42:41.510Z,14.00
2017-10-13T08:45:09.799Z,14.00
2017-10-13T08:47:38.113Z,14.20
2017-10-13T08:50:07.147Z,14.50
2017-10-13T08:52:35.409Z,14.50
2017-10-13T08:55:03.832Z,14.70
2017-10-13T08:57:32.082Z,14.80
2017-10-13T09:00:00.690Z,14.90
2017-10-13T09:02:29.761Z,14.90
2017-10-13T09:04:58.038Z,14.90
2017-10-13T09:07:26.321Z,15.00
2017-10-13T09:09:54.596Z,15.20
2017-10-13T09:12:22.894Z,15.40
2017-10-13T09:14:51.181Z,15.50
2017-10-13T09:17:19.468Z,15.60
2017-10-13T09:19:47.753Z,15.60
2017-10-13T09:22:16.017Z,15.60
2017-10-13T09:24:44.324Z,15.50
2017-10-13T09:27:12.676Z,15.30
2017-10-13T09:29:41.041Z,15.20
2017-10-13T09:32:09.329Z,15.10
2017-10-13T09:34:37.590Z,15.10
2017-10-13T09:37:05.980Z,15.20
2017-10-13T09:39:34.249Z,15.20
2017-10-13T09:42:02.549Z,15.20
2017-10-13T09:44:30.834Z,15.40
2017-10-13T09:46:59.909Z,15.90
2017-10-13T09:49:28.998Z,16.20
2017-10-13T09:51:57.273Z,16.20
2017-10-13T09:54:25.547Z,16.40
2017-10-13T09:56:53.844Z,16.40
2017-10-13T09:59:22.122Z,16.30
2017-10-13T10:01:50.415Z,16.50
2017-10-13T10:04:19.449Z,16.20
2017-10-13T10:06:47.767Z,16.20
2017-10-13T10:09:16.131Z,16.10
2017-10-13T10:11:44.414Z,15.90
2017-10-13T10:14:12.734Z,15.80
2017-10-13T10:16:41.778Z,15.90
2017-10-13T10:19:10.061Z,15.90
2017-10-13T10:21:38.479Z,16.10
2017-10-13T10:24:07.504Z,16.10
2017-10-13T10:26:35.937Z,16.00
2017-10-13T10:29:04.206Z,16.10
2017-10-13T10:31:32.464Z,16.10
2017-10-13T10:34:00.744Z,16.10
2017-10-13T10:36:29.016Z,16.10
2017-10-13T10:38:57.309Z,16.00
2017-10-13T10:41:25.574Z,16.10
2017-10-13T10:43:53.840Z,16.00
2017-10-13T10:46:22.121Z,16.00
2017-10-13T10:48:50.389Z,16.00
2017-10-13T10:51:18.697Z,16.10
2017-10-13T10:53:46.966Z,16.20
2017-10-13T10:56:15.224Z,16.00
2017-10-13T10:58:43.520Z,16.20
2017-10-13T11:01:11.787Z,16.50
2017-10-13T11:03:40.077Z,16.80
2017-10-13T11:06:08.341Z,16.90
2017-10-13T11:08:36.731Z,16.70
2017-10-13T11:11:04.996Z,16.60
2017-10-13T11:13:33.302Z,16.80
2017-10-13T11:16:01.671Z,16.70
2017-10-13T11:18:29.946Z,16.70
2017-10-13T11:20:58.321Z,16.80
2017-10-13T11:23:26.609Z,16.90
2017-10-13T11:25:54.878Z,16.90
2017-10-13T11:28:23.262Z,16.80
2017-10-13T11:30:51.538Z,16.70
2017-10-13T11:33:19.811Z,16.70
2017-10-13T11:35:48.093Z,16.60
2017-10-13T11:38:16.530Z,16.70
2017-10-13T11:40:44.806Z,16.90
2017-10-13T11:43:13.124Z,17.20
2017-10-13T11:45:41.399Z,17.30
2017-10-13T11:48:09.673Z,17.40
2017-10-13T11:50:37.965Z,17.60
2017-10-13T11:53:06.229Z,17.60
2017-10-13T11:55:34.515Z,17.60
2017-10-13T11:58:02.789Z,17.60
2017-10-13T12:00:31.076Z,17.60
2017-10-13T12:02:59.338Z,17.50
2017-10-13T12:05:27.714Z,17.50
2017-10-13T12:07:55.982Z,17.50
2017-10-13T12:10:24.381Z,17.40
2017-10-13T12:12:52.658Z,17.40
2017-10-13T12:15:22.433Z,17.10
2017-10-13T12:17:50.724Z,17.20
2017-10-13T12:20:18.989Z,16.90
2017-10-13T12:22:47.282Z,16.90
2017-10-13T12:25:15.561Z,17.00
2017-10-13T12:27:43.840Z,17.10
2017-10-13T12:30:12.101Z,17.20
2017-10-13T12:32:40.402Z,17.20
2017-10-13T12:35:08.677Z,17.30
2017-10-13T12:37:37.058Z,17.20
2017-10-13T12:40:05.334Z,17.30
2017-10-13T12:42:33.617Z,17.30
2017-10-13T12:45:01.993Z,17.20
2017-10-13T12:47:30.283Z,17.00
2017-10-13T12:49:58.543Z,16.90
2017-10-13T12:52:26.919Z,16.80
2017-10-13T12:54:55.959Z,17.10
2017-10-13T12:57:24.217Z,17.10
2017-10-13T12:59:52.508Z,17.50
2017-10-13T13:02:20.786Z,17.60
2017-10-13T13:04:49.058Z,17.80
2017-10-13T13:07:18.183Z,18.00
2017-10-13T13:09:46.479Z,17.90
2017-10-13T13:12:14.753Z,18.00
2017-10-13T13:14:43.033Z,17.80
2017-10-13T13:17:11.301Z,17.60
2017-10-13T13:19:39.587Z,17.50
2017-10-13T13:22:07.947Z,17.40
2017-10-13T13:24:36.345Z,17.40
2017-10-13T13:27:04.698Z,17.40
2017-10-13T13:29:32.979Z,17.50
2017-10-13T13:32:01.254Z,17.60
2017-10-13T13:34:30.329Z,17.70
2017-10-13T13:36:59.417Z,17.70
2017-10-13T13:39:27.670Z,17.70
2017-10-13T13:41:55.967Z,17.60
2017-10-13T13:44:24.226Z,17.50
2017-10-13T13:46:52.526Z,17.30
2017-10-13T13:49:20.786Z,17.30
2017-10-13T13:51:49.173Z,17.30
2017-10-13T13:54:17.464Z,17.30
2017-10-13T13:56:45.824Z,17.30
2017-10-13T13:59:14.081Z,17.30
2017-10-13T14:01:42.372Z,17.30
2017-10-13T14:04:10.662Z,17.20
2017-10-13T14:06:38.948Z,17.40
2017-10-13T14:09:07.327Z,17.40
2017-10-13T14:11:35.620Z,17.40
2017-10-13T14:14:03.895Z,17.20
2017-10-13T14:16:32.576Z,17.30
2017-10-13T14:19:01.620Z,17.10
2017-10-13T14:21:29.877Z,17.10
2017-10-13T14:23:58.279Z,17.10
2017-10-13T14:26:26.660Z,17.00
2017-10-13T14:28:54.933Z,17.10
2017-10-13T14:31:23.231Z,16.90
2017-10-13T14:33:51.510Z,16.90
2017-10-13T14:36:19.778Z,16.90
2017-10-13T14:38:48.069Z,16.90
2017-10-13T14:41:16.343Z,17.00
2017-10-13T14:43:44.655Z,17.00
2017-10-13T14:46:12.995Z,17.00
2017-10-13T14:48:41.349Z,16.90
2017-10-13T14:51:09.622Z,16.90
2017-10-13T14:53:37.894Z,16.90
2017-10-13T14:56:06.180Z,16.90
2017-10-13T14:58:34.448Z,16.90
2017-10-13T15:01:02.736Z,16.90
2017-10-13T15:03:30.997Z,17.00
2017-10-13T15:05:59.273Z,16.90
2017-10-13T15:08:27.590Z,16.90
2017-10-13T15:10:55.997Z,17.10
2017-10-13T15:13:24.265Z,17.40
2017-10-13T15:15:52.547Z,17.90
2017-10-13T15:18:20.904Z,18.00
2017-10-13T15:20:49.289Z,18.30
2017-10-13T15:23:17.566Z,18.20
2017-10-13T15:25:51.677Z,18.10
2017-10-13T15:28:25.577Z,17.70
2017-10-13T15:30:59.539Z,17.40
2017-10-13T15:33:33.565Z,17.20
2017-10-13T15:36:07.627Z,17.00
2017-10-13T15:38:42.260Z,16.70
2017-10-13T15:41:16.947Z,16.70
2017-10-13T15:43:51.662Z,16.60
2017-10-13T15:46:25.620Z,16.60
2017-10-13T15:48:59.653Z,16.60
2017-10-13T15:51:33.630Z,16.40
2017-10-13T15:54:01.902Z,16.40
2017-10-13T15:56:30.173Z,16.30
2017-10-13T15:58:58.493Z,16.20
2017-10-13T16:01:26.757Z,16.30
2017-10-13T16:03:55.047Z,16.10
2017-10-13T16:06:23.313Z,16.10
2017-10-13T16:08:51.630Z,16.10
2017-10-13T16:11:19.910Z,16.00
2017-10-13T16:13:48.247Z,15.90
2017-10-13T16:16:16.512Z,15.90
2017-10-13T16:18:44.805Z,15.80
2017-10-13T16:21:13.188Z,15.80
2017-10-13T16:23:42.213Z,15.70
2017-10-13T16:26:11.295Z,15.70
2017-10-13T16:28:39.568Z,15.70
2017-10-13T16:31:07.849Z,15.70
2017-10-13T16:33:36.116Z,15.60
2017-10-13T16:36:04.620Z,15.50
2017-10-13T16:38:32.891Z,15.50
2017-10-13T16:41:01.174Z,15.40
2017-10-13T16:43:30.244Z,15.30
2017-10-13T16:45:58.831Z,15.30
2017-10-13T16:48:27.209Z,15.30
2017-10-13T16:50:55.474Z,15.20
2017-10-13T16:53:23.747Z,15.20
2017-10-13T16:55:52.024Z,15.20
2017-10-13T16:58:20.311Z,15.10
2017-10-13T17:00:48.572Z,15.00
2017-10-13T17:03:16.852Z,15.00
2017-10-13T17:05:45.109Z,15.00
2017-10-13T17:08:13.375Z,14.90
2017-10-13T17:10:41.672Z,14.90
2017-10-13T17:13:09.921Z,14.90
2017-10-13T17:15:38.208Z,14.80
2017-10-13T17:18:06.480Z,14.70
2017-10-13T17:20:34.775Z,14.80
2017-10-13T17:23:03.035Z,14.80
2017-10-13T17:25:31.336Z,14.70
2017-10-13T17:27:59.606Z,14.70
2017-10-13T17:30:27.861Z,14.60
2017-10-13T17:32:56.182Z,14.60
2017-10-13T17:35:24.445Z,14.60
2017-10-13T17:37:52.718Z,14.60
2017-10-13T17:40:20.981Z,14.50
2017-10-13T17:42:49.265Z,14.50
2017-10-13T17:45:17.525Z,14.50
2017-10-13T17:47:45.838Z,14.40
2017-10-13T17:50:14.098Z,14.40
2017-10-13T17:52:42.400Z,14.40
2017-10-13T17:55:10.774Z,14.40
2017-10-13T17:57:39.032Z,14.30
2017-10-13T18:00:07.309Z,14.30
2017-10-13T18:02:35.612Z,14.30
2017-10-13T18:05:03.882Z,14.30
2017-10-13T18:07:32.159Z,14.20
2017-10-13T18:10:00.461Z,14.20
2017-10-13T18:12:28.811Z,14.10
2017-10-13T18:14:57.785Z,14.10
2017-10-13T18:17:26.065Z,14.00
2017-10-13T18:19:54.371Z,13.90
2017-10-13T18:22:22.649Z,13.90
2017-10-13T18:24:50.918Z,13.90
2017-10-13T18:27:19.198Z,13.90
2017-10-13T18:29:47.491Z,13.80
2017-10-13T18:32:15.792Z,13.80
2017-10-13T18:34:44.062Z,13.80
2017-10-13T18:37:13.123Z,13.80
2017-10-13T18:39:41.405Z,13.80
2017-10-13T18:42:10.501Z,13.80
2017-10-13T18:44:38.980Z,13.70
2017-10-13T18:47:07.220Z,13.70
2017-10-13T18:49:35.508Z,13.70
2017-10-13T18:52:03.773Z,13.70
2017-10-13T18:54:32.189Z,13.70
2017-10-13T18:57:00.481Z,13.60
2017-10-13T18:59:28.733Z,13.60
2017-10-13T19:01:57.010Z,13.60
2017-10-13T19:04:25.283Z,13.60
2017-10-13T19:06:53.561Z,13.60
2017-10-13T19:09:21.829Z,13.60
2017-10-13T19:11:50.129Z,13.60
2017-10-13T19:14:18.393Z,13.60
2017-10-13T19:16:46.707Z,13.60
2017-10-13T19:19:14.957Z,13.60
2017-10-13T19:21:43.231Z,13.50
2017-10-13T19:24:11.516Z,13.50
2017-10-13T19:26:39.822Z,13.50
2017-10-13T19:29:08.169Z,13.50
2017-10-13T19:31:36.433Z,13.50
2017-10-13T19:34:04.823Z,13.60
2017-10-13T19:36:33.498Z,13.50
2017-10-13T19:39:01.882Z,13.50
2017-10-13T19:41:30.164Z,13.50
2017-10-13T19:43:58.433Z,13.50
2017-10-13T19:46:26.813Z,13.50
2017-10-13T19:48:55.069Z,13.50
2017-10-13T19:51:23.351Z,13.50
2017-10-13T19:53:51.650Z,13.40
2017-10-13T19:56:19.940Z,13.40
2017-10-13T19:58:48.212Z,13.40
2017-10-13T20:01:16.513Z,13.40
2017-10-13T20:03:44.865Z,13.40
2017-10-13T20:06:13.133Z,13.50
2017-10-13T20:08:41.420Z,13.50
2017-10-13T20:11:09.725Z,13.50
2017-10-13T20:13:38.052Z,13.50
2017-10-13T20:16:06.369Z,13.50
2017-10-13T20:18:34.713Z,13.40
2017-10-13T20:21:03.010Z,13.40
2017-10-13T20:23:31.299Z,13.40
2017-10-13T20:25:59.559Z,13.40
2017-10-13T20:28:27.847Z,13.30
2017-10-13T20:30:56.104Z,13.30
2017-10-13T20:33:24.391Z,13.30
2017-10-13T20:35:52.780Z,13.20
2017-10-13T20:38:21.054Z,13.20
2017-10-13T20:40:49.327Z,13.30
2017-10-13T20:43:17.704Z,13.30
2017-10-13T20:45:45.981Z,13.30
2017-10-13T20:48:14.253Z,13.40
2017-10-13T20:50:42.638Z,13.50
2017-10-13T20:53:11.038Z,13.50
2017-10-13T20:55:39.317Z,13.50
2017-10-13T20:58:07.612Z,13.60
2017-10-13T21:00:36.665Z,13.70
2017-10-13T21:03:05.046Z,13.70
2017-10-13T21:05:33.327Z,13.70
2017-10-13T21:08:01.720Z,13.70
2017-10-13T21:10:30.081Z,13.70
2017-10-13T21:12:58.394Z,13.80
2017-10-13T21:15:27.430Z,13.70
2017-10-13T21:17:55.721Z,13.70
2017-10-13T21:20:24.007Z,13.80
2017-10-13T21:22:52.315Z,13.80
2017-10-13T21:25:21.352Z,13.90
2017-10-13T21:27:49.659Z,14.00
2017-10-13T21:30:17.955Z,13.90
2017-10-13T21:32:46.330Z,14.00
2017-10-13T21:35:15.374Z,14.00
2017-10-13T21:37:43.701Z,14.00
2017-10-13T21:40:11.984Z,14.00
2017-10-13T21:42:40.358Z,14.00
2017-10-13T21:45:08.724Z,14.00
2017-10-13T21:47:36.999Z,14.00
2017-10-13T21:50:06.041Z,14.10
2017-10-13T21:52:34.317Z,14.10
2017-10-13T21:55:02.591Z,14.00
2017-10-13T21:57:31.021Z,14.00
2017-10-13T21:59:59.415Z,14.00
2017-10-13T22:02:27.808Z,13.90
2017-10-13T22:05:01.759Z,13.90
2017-10-13T22:07:30.093Z,13.80
2017-10-13T22:09:58.466Z,13.70
2017-10-13T22:12:27.499Z,13.50
2017-10-13T22:14:56.589Z,13.50
2017-10-13T22:17:24.844Z,13.40
2017-10-13T22:19:53.165Z,13.50
2017-10-13T22:22:22.322Z,13.40
2017-10-13T22:24:50.610Z,13.40
2017-10-13T22:27:18.890Z,13.40
2017-10-13T22:29:47.178Z,13.30
2017-10-13T22:32:15.463Z,13.30
2017-10-13T22:34:43.754Z,13.40
2017-10-13T22:37:12.025Z,13.40
2017-10-13T22:39:40.381Z,13.40
2017-10-13T22:42:09.417Z,13.50
2017-10-13T22:44:37.686Z,13.50
2017-10-13T22:47:05.997Z,13.60
2017-10-13T22:49:34.278Z,13.60
2017-10-13T22:52:03.335Z,13.60
2017-10-13T22:54:31.700Z,13.60
2017-10-13T22:57:00.007Z,13.60
2017-10-13T22:59:29.041Z,13.60
2017-10-13T23:01:57.459Z,13.60
2017-10-13T23:04:25.745Z,13.70
2017-10-13T23:06:54.022Z,13.70
2017-10-13T23:09:22.319Z,13.70
2017-10-13T23:11:50.579Z,13.70
2017-10-13T23:14:18.945Z,13.70
2017-10-13T23:16:47.321Z,13.80
2017-10-13T23:19:16.434Z,13.80
2017-10-13T23:21:44.703Z,13.80
2017-10-13T23:24:12.981Z,13.80
2017-10-13T23:26:41.261Z,13.80
2017-10-13T23:29:09.629Z,13.80
2017-10-13T23:31:37.923Z,13.80
2017-10-13T23:34:06.192Z,13.80
2017-10-13T23:36:35.240Z,13.90
2017-10-13T23:39:03.522Z,13.80
2017-10-13T23:41:31.833Z,13.90
2017-10-13T23:44:00.110Z,13.80
2017-10-13T23:46:28.412Z,13.80
2017-10-13T23:48:56.672Z,13.80
2017-10-13T23:51:25.041Z,13.80
2017-10-13T23:53:53.327Z,13.80
2017-10-13T23:56:21.597Z,13.80
2017-10-13T23:58:49.882Z,13.80
